sensor_id;sensor_type;location;lat;lon;timestamp;temperature;humidity
9446;DHT22;4761;49.490;10.908;2023-01-15T00:01:42;17.90;48.00
9446;DHT22;4761;49.490;10.908;2023-01-15T00:04:10;17.90;48.00
9446;DHT22;4761;49.490;10.908;2023-01-15T00:06:37;17.90;48.00
9446;DHT22;4761;49.490;10.908;2023-01-15T00:09:04;17.80;47.90
9446;DHT22;4761;49.490;10.908;2023-01-15T00:11:30;17.90;48.60
9446;DHT22;4761;49.490;10.908;2023-01-15T00:13:56;17.80;48.00
9446;DHT22;4761;49.490;10.908;2023-01-15T00:16:23;17.90;48.00
9446;DHT22;4761;49.490;10.908;2023-01-15T00:18:57;17.90;48.00
9446;DHT22;4761;49.490;10.908;2023-01-15T00:21:25;17.90;48.10
9446;DHT22;4761;49.490;10.908;2023-01-15T00:23:51;17.80;48.00
9446;DHT22;4761;49.490;10.908;2023-01-15T00:26:36;17.80;47.90
9446;DHT22;4761;49.490;10.908;2023-01-15T00:29:21;17.80;47.90
9446;DHT22;4761;49.490;10.908;2023-01-15T00:31:56;17.80;47.90
9446;DHT22;4761;49.490;10.908;2023-01-15T00:34:22;17.80;47.90
9446;DHT22;4761;49.490;10.908;2023-01-15T00:36:48;17.90;48.00
9446;DHT22;4761;49.490;10.908;2023-01-15T00:39:14;17.90;48.00
9446;DHT22;4761;49.490;10.908;2023-01-15T00:41:39;17.90;48.00
9446;DHT22;4761;49.490;10.908;2023-01-15T00:44:05;17.90;48.10
9446;DHT22;4761;49.490;10.908;2023-01-15T00:46:30;17.80;47.90
9446;DHT22;4761;49.490;10.908;2023-01-15T00:48:56;17.80;48.00
9446;DHT22;4761;49.490;10.908;2023-01-15T00:51:22;17.80;48.00
9446;DHT22;4761;49.490;10.908;2023-01-15T00:53:47;17.80;47.90
9446;DHT22;4761;49.490;10.908;2023-01-15T00:56:13;17.90;48.00
9446;DHT22;4761;49.490;10.908;2023-01-15T00:58:38;17.90;48.00
9446;DHT22;4761;49.490;10.908;2023-01-15T01:01:04;17.90;48.00
9446;DHT22;4761;49.490;10.908;2023-01-15T01:03:29;17.90;48.10
9446;DHT22;4761;49.490;10.908;2023-01-15T01:06:02;17.90;48.00
9446;DHT22;4761;49.490;10.908;2023-01-15T01:08:28;17.80;48.00
9446;DHT22;4761;49.490;10.908;2023-01-15T01:11:09;17.90;48.10
9446;DHT22;4761;49.490;10.908;2023-01-15T01:13:36;17.90;48.00
9446;DHT22;4761;49.490;10.908;2023-01-15T01:16:03;17.90;48.00
9446;DHT22;4761;49.490;10.908;2023-01-15T01:18:29;18.00;48.00
9446;DHT22;4761;49.490;10.908;2023-01-15T01:20:55;18.00;47.90
9446;DHT22;4761;49.490;10.908;2023-01-15T01:23:23;18.10;47.90
9446;DHT22;4761;49.490;10.908;2023-01-15T01:25:48;18.10;47.90
9446;DHT22;4761;49.490;10.908;2023-01-15T01:28:14;18.10;48.40
9446;DHT22;4761;49.490;10.908;2023-01-15T01:30:40;18.00;47.70
9446;DHT22;4761;49.490;10.908;2023-01-15T01:33:05;18.00;47.80
9446;DHT22;4761;49.490;10.908;2023-01-15T01:35:31;18.00;47.90
9446;DHT22;4761;49.490;10.908;2023-01-15T01:37:56;18.00;47.90
9446;DHT22;4761;49.490;10.908;2023-01-15T01:40:22;18.00;48.00
9446;DHT22;4761;49.490;10.908;2023-01-15T01:42:47;18.00;48.10
9446;DHT22;4761;49.490;10.908;2023-01-15T01:45:30;17.90;48.00
9446;DHT22;4761;49.490;10.908;2023-01-15T01:48:03;18.00;48.00
9446;DHT22;4761;49.490;10.908;2023-01-15T01:50:31;18.00;48.00
9446;DHT22;4761;49.490;10.908;2023-01-15T01:53:03;18.00;48.10
9446;DHT22;4761;49.490;10.908;2023-01-15T01:55:33;18.00;48.10
9446;DHT22;4761;49.490;10.908;2023-01-15T01:58:01;18.00;48.10
9446;DHT22;4761;49.490;10.908;2023-01-15T02:00:29;17.90;48.00
9446;DHT22;4761;49.490;10.908;2023-01-15T02:02:56;17.90;48.00
9446;DHT22;4761;49.490;10.908;2023-01-15T02:05:32;18.00;48.10
9446;DHT22;4761;49.490;10.908;2023-01-15T02:07:58;18.00;48.10
9446;DHT22;4761;49.490;10.908;2023-01-15T02:10:24;18.00;48.10
9446;DHT22;4761;49.490;10.908;2023-01-15T02:13:14;18.00;48.10
9446;DHT22;4761;49.490;10.908;2023-01-15T02:18:59;18.00;48.10
9446;DHT22;4761;49.490;10.908;2023-01-15T02:24:14;17.90;48.10
9446;DHT22;4761;49.490;10.908;2023-01-15T02:27:11;17.90;48.20
9446;DHT22;4761;49.490;10.908;2023-01-15T02:33:00;18.00;48.20
9446;DHT22;4761;49.490;10.908;2023-01-15T02:35:34;17.90;48.10
9446;DHT22;4761;49.490;10.908;2023-01-15T02:38:04;18.00;48.20
9446;DHT22;4761;49.490;10.908;2023-01-15T02:40:31;18.00;48.20
9446;DHT22;4761;49.490;10.908;2023-01-15T02:42:59;18.00;48.20
9446;DHT22;4761;49.490;10.908;2023-01-15T02:45:27;18.00;48.20
9446;DHT22;4761;49.490;10.908;2023-01-15T02:47:58;18.00;48.10
9446;DHT22;4761;49.490;10.908;2023-01-15T02:50:30;18.00;48.10
9446;DHT22;4761;49.490;10.908;2023-01-15T02:53:01;18.00;48.10
9446;DHT22;4761;49.490;10.908;2023-01-15T02:55:32;18.00;48.10
9446;DHT22;4761;49.490;10.908;2023-01-15T02:58:03;18.00;48.20
9446;DHT22;4761;49.490;10.908;2023-01-15T03:00:32;18.00;48.20
9446;DHT22;4761;49.490;10.908;2023-01-15T03:03:15;18.00;48.20
9446;DHT22;4761;49.490;10.908;2023-01-15T03:08:40;18.00;48.10
9446;DHT22;4761;49.490;10.908;2023-01-15T03:11:10;18.00;48.10
9446;DHT22;4761;49.490;10.908;2023-01-15T03:16:38;18.00;48.20
9446;DHT22;4761;49.490;10.908;2023-01-15T03:19:28;18.00;48.10
9446;DHT22;4761;49.490;10.908;2023-01-15T03:22:11;18.00;48.10
9446;DHT22;4761;49.490;10.908;2023-01-15T03:24:53;18.00;48.20
9446;DHT22;4761;49.490;10.908;2023-01-15T03:27:20;18.00;48.20
9446;DHT22;4761;49.490;10.908;2023-01-15T03:29:57;18.00;48.10
9446;DHT22;4761;49.490;10.908;2023-01-15T03:32:23;18.00;48.10
9446;DHT22;4761;49.490;10.908;2023-01-15T03:34:52;18.00;48.10
9446;DHT22;4761;49.490;10.908;2023-01-15T03:37:19;18.00;48.10
9446;DHT22;4761;49.490;10.908;2023-01-15T03:39:46;18.00;48.10
9446;DHT22;4761;49.490;10.908;2023-01-15T03:50:48;18.00;48.10
9446;DHT22;4761;49.490;10.908;2023-01-15T03:53:22;18.00;48.10
9446;DHT22;4761;49.490;10.908;2023-01-15T03:56:10;18.00;48.10
9446;DHT22;4761;49.490;10.908;2023-01-15T03:58:49;18.00;48.10
9446;DHT22;4761;49.490;10.908;2023-01-15T04:01:20;17.90;48.00
9446;DHT22;4761;49.490;10.908;2023-01-15T04:03:49;18.00;48.10
9446;DHT22;4761;49.490;10.908;2023-01-15T04:06:17;18.00;48.20
9446;DHT22;4761;49.490;10.908;2023-01-15T04:08:44;18.00;48.10
9446;DHT22;4761;49.490;10.908;2023-01-15T04:11:10;18.00;48.10
9446;DHT22;4761;49.490;10.908;2023-01-15T04:13:36;18.00;48.10
9446;DHT22;4761;49.490;10.908;2023-01-15T04:16:01;18.00;48.10
9446;DHT22;4761;49.490;10.908;2023-01-15T04:18:27;18.00;48.20
9446;DHT22;4761;49.490;10.908;2023-01-15T04:20:53;18.00;48.20
9446;DHT22;4761;49.490;10.908;2023-01-15T04:23:20;18.00;48.30
9446;DHT22;4761;49.490;10.908;2023-01-15T04:25:45;18.00;48.40
9446;DHT22;4761;49.490;10.908;2023-01-15T04:28:11;17.90;48.30
9446;DHT22;4761;49.490;10.908;2023-01-15T04:30:38;18.00;48.40
9446;DHT22;4761;49.490;10.908;2023-01-15T04:33:04;17.90;48.40
9446;DHT22;4761;49.490;10.908;2023-01-15T04:35:29;18.00;48.50
9446;DHT22;4761;49.490;10.908;2023-01-15T04:37:57;18.00;48.50
9446;DHT22;4761;49.490;10.908;2023-01-15T04:40:23;17.90;48.50
9446;DHT22;4761;49.490;10.908;2023-01-15T04:43:10;18.00;48.50
9446;DHT22;4761;49.490;10.908;2023-01-15T04:45:54;17.90;48.60
9446;DHT22;4761;49.490;10.908;2023-01-15T04:48:20;18.00;48.70
9446;DHT22;4761;49.490;10.908;2023-01-15T04:50:45;17.90;48.70
9446;DHT22;4761;49.490;10.908;2023-01-15T04:53:11;17.90;48.70
9446;DHT22;4761;49.490;10.908;2023-01-15T04:55:36;17.90;48.70
9446;DHT22;4761;49.490;10.908;2023-01-15T04:58:02;17.90;48.70
9446;DHT22;4761;49.490;10.908;2023-01-15T05:00:27;17.90;48.80
9446;DHT22;4761;49.490;10.908;2023-01-15T05:02:54;17.90;48.90
9446;DHT22;4761;49.490;10.908;2023-01-15T05:05:19;17.90;48.90
9446;DHT22;4761;49.490;10.908;2023-01-15T05:07:45;17.90;48.80
9446;DHT22;4761;49.490;10.908;2023-01-15T05:10:10;17.90;48.80
9446;DHT22;4761;49.490;10.908;2023-01-15T05:12:36;17.90;49.30
9446;DHT22;4761;49.490;10.908;2023-01-15T05:15:02;18.00;48.80
9446;DHT22;4761;49.490;10.908;2023-01-15T05:17:27;18.00;48.70
9446;DHT22;4761;49.490;10.908;2023-01-15T05:19:53;17.90;48.70
9446;DHT22;4761;49.490;10.908;2023-01-15T05:22:18;18.00;48.80
9446;DHT22;4761;49.490;10.908;2023-01-15T05:24:44;18.00;48.80
9446;DHT22;4761;49.490;10.908;2023-01-15T05:27:09;18.00;48.80
9446;DHT22;4761;49.490;10.908;2023-01-15T05:29:35;18.00;48.80
9446;DHT22;4761;49.490;10.908;2023-01-15T05:32:00;18.00;48.80
9446;DHT22;4761;49.490;10.908;2023-01-15T05:34:26;18.00;49.40
9446;DHT22;4761;49.490;10.908;2023-01-15T05:36:51;18.00;48.80
9446;DHT22;4761;49.490;10.908;2023-01-15T05:39:17;18.00;48.70
9446;DHT22;4761;49.490;10.908;2023-01-15T05:41:42;18.00;48.60
9446;DHT22;4761;49.490;10.908;2023-01-15T05:44:22;18.00;48.70
9446;DHT22;4761;49.490;10.908;2023-01-15T05:46:50;18.10;48.60
9446;DHT22;4761;49.490;10.908;2023-01-15T05:49:18;18.10;48.50
9446;DHT22;4761;49.490;10.908;2023-01-15T05:51:44;18.10;48.40
9446;DHT22;4761;49.490;10.908;2023-01-15T05:54:15;18.10;48.50
9446;DHT22;4761;49.490;10.908;2023-01-15T05:56:41;18.10;48.50
9446;DHT22;4761;49.490;10.908;2023-01-15T05:59:07;18.10;48.60
9446;DHT22;4761;49.490;10.908;2023-01-15T06:01:34;18.10;48.70
9446;DHT22;4761;49.490;10.908;2023-01-15T06:04:02;18.00;48.70
9446;DHT22;4761;49.490;10.908;2023-01-15T06:06:28;18.00;48.80
9446;DHT22;4761;49.490;10.908;2023-01-15T06:08:54;18.10;48.90
9446;DHT22;4761;49.490;10.908;2023-01-15T06:11:19;18.10;48.80
9446;DHT22;4761;49.490;10.908;2023-01-15T06:13:45;18.10;48.80
9446;DHT22;4761;49.490;10.908;2023-01-15T06:16:10;18.10;48.80
9446;DHT22;4761;49.490;10.908;2023-01-15T06:18:39;18.10;48.80
9446;DHT22;4761;49.490;10.908;2023-01-15T06:21:10;18.10;48.80
9446;DHT22;4761;49.490;10.908;2023-01-15T06:23:36;18.10;48.90
9446;DHT22;4761;49.490;10.908;2023-01-15T06:26:04;18.10;49.00
9446;DHT22;4761;49.490;10.908;2023-01-15T06:28:30;18.10;49.10
9446;DHT22;4761;49.490;10.908;2023-01-15T06:30:56;18.00;49.10
9446;DHT22;4761;49.490;10.908;2023-01-15T06:33:22;18.00;49.20
9446;DHT22;4761;49.490;10.908;2023-01-15T06:35:48;18.00;49.20
9446;DHT22;4761;49.490;10.908;2023-01-15T06:38:13;18.00;49.30
9446;DHT22;4761;49.490;10.908;2023-01-15T06:40:39;18.00;49.40
9446;DHT22;4761;49.490;10.908;2023-01-15T06:43:05;17.90;49.40
9446;DHT22;4761;49.490;10.908;2023-01-15T06:45:49;17.90;49.50
9446;DHT22;4761;49.490;10.908;2023-01-15T06:48:50;17.90;49.50
9446;DHT22;4761;49.490;10.908;2023-01-15T06:51:15;17.90;49.60
9446;DHT22;4761;49.490;10.908;2023-01-15T06:53:44;17.90;49.60
9446;DHT22;4761;49.490;10.908;2023-01-15T06:56:14;17.90;49.60
9446;DHT22;4761;49.490;10.908;2023-01-15T06:58:41;17.90;49.60
9446;DHT22;4761;49.490;10.908;2023-01-15T07:01:11;17.90;49.60
9446;DHT22;4761;49.490;10.908;2023-01-15T07:03:37;17.90;49.70
9446;DHT22;4761;49.490;10.908;2023-01-15T07:06:11;17.80;49.60
9446;DHT22;4761;49.490;10.908;2023-01-15T07:08:37;17.80;49.70
9446;DHT22;4761;49.490;10.908;2023-01-15T07:11:05;17.90;49.80
9446;DHT22;4761;49.490;10.908;2023-01-15T07:13:31;17.80;50.30
9446;DHT22;4761;49.490;10.908;2023-01-15T07:16:01;17.90;49.80
9446;DHT22;4761;49.490;10.908;2023-01-15T07:18:28;17.90;49.70
9446;DHT22;4761;49.490;10.908;2023-01-15T07:20:55;17.90;49.70
9446;DHT22;4761;49.490;10.908;2023-01-15T07:23:25;17.80;49.70
9446;DHT22;4761;49.490;10.908;2023-01-15T07:25:52;17.80;49.80
9446;DHT22;4761;49.490;10.908;2023-01-15T07:28:19;17.80;49.80
9446;DHT22;4761;49.490;10.908;2023-01-15T07:30:44;17.80;49.90
9446;DHT22;4761;49.490;10.908;2023-01-15T07:33:10;17.80;49.80
9446;DHT22;4761;49.490;10.908;2023-01-15T07:35:37;17.80;49.80
9446;DHT22;4761;49.490;10.908;2023-01-15T07:38:03;17.80;49.80
9446;DHT22;4761;49.490;10.908;2023-01-15T07:40:28;17.80;49.80
9446;DHT22;4761;49.490;10.908;2023-01-15T07:42:53;17.80;49.90
9446;DHT22;4761;49.490;10.908;2023-01-15T07:45:42;17.80;49.90
9446;DHT22;4761;49.490;10.908;2023-01-15T07:48:26;17.80;49.80
9446;DHT22;4761;49.490;10.908;2023-01-15T07:51:11;17.80;49.80
9446;DHT22;4761;49.490;10.908;2023-01-15T07:53:36;17.80;49.80
9446;DHT22;4761;49.490;10.908;2023-01-15T07:56:02;17.80;49.80
9446;DHT22;4761;49.490;10.908;2023-01-15T07:58:27;17.80;49.80
9446;DHT22;4761;49.490;10.908;2023-01-15T08:00:53;17.80;49.80
9446;DHT22;4761;49.490;10.908;2023-01-15T08:03:18;17.80;49.80
9446;DHT22;4761;49.490;10.908;2023-01-15T08:05:44;17.80;49.80
9446;DHT22;4761;49.490;10.908;2023-01-15T08:08:16;17.80;49.80
9446;DHT22;4761;49.490;10.908;2023-01-15T08:10:42;17.80;49.80
9446;DHT22;4761;49.490;10.908;2023-01-15T08:13:27;17.80;49.80
9446;DHT22;4761;49.490;10.908;2023-01-15T08:16:11;17.70;49.80
9446;DHT22;4761;49.490;10.908;2023-01-15T08:18:37;17.70;49.80
9446;DHT22;4761;49.490;10.908;2023-01-15T08:21:03;17.70;49.80
9446;DHT22;4761;49.490;10.908;2023-01-15T08:23:29;17.70;49.80
9446;DHT22;4761;49.490;10.908;2023-01-15T08:25:58;17.70;49.80
9446;DHT22;4761;49.490;10.908;2023-01-15T08:28:24;17.70;49.80
9446;DHT22;4761;49.490;10.908;2023-01-15T08:30:50;17.70;49.80
9446;DHT22;4761;49.490;10.908;2023-01-15T08:33:15;17.70;49.80
9446;DHT22;4761;49.490;10.908;2023-01-15T08:35:41;17.70;49.80
9446;DHT22;4761;49.490;10.908;2023-01-15T08:38:07;17.70;49.80
9446;DHT22;4761;49.490;10.908;2023-01-15T08:40:34;17.70;49.80
9446;DHT22;4761;49.490;10.908;2023-01-15T08:43:01;17.70;49.80
9446;DHT22;4761;49.490;10.908;2023-01-15T08:45:26;17.70;49.80
9446;DHT22;4761;49.490;10.908;2023-01-15T08:47:55;17.70;49.80
9446;DHT22;4761;49.490;10.908;2023-01-15T08:50:22;17.70;49.80
9446;DHT22;4761;49.490;10.908;2023-01-15T08:52:48;17.70;49.80
9446;DHT22;4761;49.490;10.908;2023-01-15T08:55:13;17.70;49.80
9446;DHT22;4761;49.490;10.908;2023-01-15T08:57:39;17.60;49.70
9446;DHT22;4761;49.490;10.908;2023-01-15T09:00:05;17.60;49.70
9446;DHT22;4761;49.490;10.908;2023-01-15T09:02:31;17.70;49.80
9446;DHT22;4761;49.490;10.908;2023-01-15T09:04:56;17.60;49.70
9446;DHT22;4761;49.490;10.908;2023-01-15T09:07:22;17.60;49.70
9446;DHT22;4761;49.490;10.908;2023-01-15T09:09:47;17.70;49.80
9446;DHT22;4761;49.490;10.908;2023-01-15T09:12:13;17.70;49.80
9446;DHT22;4761;49.490;10.908;2023-01-15T09:14:38;17.70;49.80
9446;DHT22;4761;49.490;10.908;2023-01-15T09:17:07;17.60;49.70
9446;DHT22;4761;49.490;10.908;2023-01-15T09:19:33;17.70;49.80
9446;DHT22;4761;49.490;10.908;2023-01-15T09:21:59;17.60;49.80
9446;DHT22;4761;49.490;10.908;2023-01-15T09:24:24;17.70;49.80
9446;DHT22;4761;49.490;10.908;2023-01-15T09:26:50;17.70;49.90
9446;DHT22;4761;49.490;10.908;2023-01-15T09:29:17;17.60;49.80
9446;DHT22;4761;49.490;10.908;2023-01-15T09:31:43;17.60;49.80
9446;DHT22;4761;49.490;10.908;2023-01-15T09:34:08;17.70;49.80
9446;DHT22;4761;49.490;10.908;2023-01-15T09:36:35;17.70;49.90
9446;DHT22;4761;49.490;10.908;2023-01-15T09:39:02;17.60;49.70
9446;DHT22;4761;49.490;10.908;2023-01-15T09:41:54;17.70;49.80
9446;DHT22;4761;49.490;10.908;2023-01-15T09:47:12;17.70;49.90
9446;DHT22;4761;49.490;10.908;2023-01-15T09:49:59;17.60;49.90
9446;DHT22;4761;49.490;10.908;2023-01-15T09:55:21;17.60;49.90
9446;DHT22;4761;49.490;10.908;2023-01-15T09:57:51;17.60;49.90
9446;DHT22;4761;49.490;10.908;2023-01-15T10:00:24;17.60;49.80
9446;DHT22;4761;49.490;10.908;2023-01-15T10:05:30;17.70;49.80
9446;DHT22;4761;49.490;10.908;2023-01-15T10:10:27;17.70;49.80
9446;DHT22;4761;49.490;10.908;2023-01-15T10:13:02;17.70;49.70
9446;DHT22;4761;49.490;10.908;2023-01-15T10:15:44;17.80;49.70
9446;DHT22;4761;49.490;10.908;2023-01-15T10:18:16;17.80;49.60
9446;DHT22;4761;49.490;10.908;2023-01-15T10:21:06;17.80;49.50
9446;DHT22;4761;49.490;10.908;2023-01-15T10:24:01;17.80;49.50
9446;DHT22;4761;49.490;10.908;2023-01-15T10:34:11;17.70;49.70
9446;DHT22;4761;49.490;10.908;2023-01-15T10:36:55;17.70;49.80
9446;DHT22;4761;49.490;10.908;2023-01-15T10:39:34;17.70;49.80
9446;DHT22;4761;49.490;10.908;2023-01-15T10:47:39;17.70;49.80
9446;DHT22;4761;49.490;10.908;2023-01-15T10:50:36;17.70;49.80
9446;DHT22;4761;49.490;10.908;2023-01-15T10:54:12;17.60;49.80
9446;DHT22;4761;49.490;10.908;2023-01-15T10:56:21;17.70;49.80
9446;DHT22;4761;49.490;10.908;2023-01-15T11:01:24;17.60;49.90
9446;DHT22;4761;49.490;10.908;2023-01-15T11:03:51;17.70;50.00
9446;DHT22;4761;49.490;10.908;2023-01-15T11:06:20;17.60;49.90
9446;DHT22;4761;49.490;10.908;2023-01-15T11:08:54;17.70;50.60
9446;DHT22;4761;49.490;10.908;2023-01-15T11:14:18;17.70;49.90
9446;DHT22;4761;49.490;10.908;2023-01-15T11:17:02;17.60;49.80
9446;DHT22;4761;49.490;10.908;2023-01-15T11:19:51;17.70;49.90
9446;DHT22;4761;49.490;10.908;2023-01-15T11:22:18;17.60;50.00
9446;DHT22;4761;49.490;10.908;2023-01-15T11:24:50;17.60;50.00
9446;DHT22;4761;49.490;10.908;2023-01-15T11:27:28;17.60;49.90
9446;DHT22;4761;49.490;10.908;2023-01-15T11:29:59;17.60;50.50
9446;DHT22;4761;49.490;10.908;2023-01-15T11:32:33;17.60;50.00
9446;DHT22;4761;49.490;10.908;2023-01-15T11:35:12;17.60;50.00
9446;DHT22;4761;49.490;10.908;2023-01-15T11:37:38;17.60;50.00
9446;DHT22;4761;49.490;10.908;2023-01-15T11:40:04;17.60;49.90
9446;DHT22;4761;49.490;10.908;2023-01-15T11:42:32;17.60;49.90
9446;DHT22;4761;49.490;10.908;2023-01-15T11:45:20;17.70;49.90
9446;DHT22;4761;49.490;10.908;2023-01-15T11:51:05;17.60;49.80
9446;DHT22;4761;49.490;10.908;2023-01-15T11:53:34;17.70;49.80
9446;DHT22;4761;49.490;10.908;2023-01-15T11:56:05;17.70;49.80
9446;DHT22;4761;49.490;10.908;2023-01-15T11:58:45;17.60;49.70
9446;DHT22;4761;49.490;10.908;2023-01-15T12:01:13;17.60;49.70
9446;DHT22;4761;49.490;10.908;2023-01-15T12:03:45;17.60;49.70
9446;DHT22;4761;49.490;10.908;2023-01-15T12:06:12;17.60;49.60
9446;DHT22;4761;49.490;10.908;2023-01-15T12:09:07;17.60;49.60
9446;DHT22;4761;49.490;10.908;2023-01-15T12:23:05;17.60;49.50
9446;DHT22;4761;49.490;10.908;2023-01-15T12:25:43;17.60;49.50
9446;DHT22;4761;49.490;10.908;2023-01-15T12:28:39;17.60;49.40
9446;DHT22;4761;49.490;10.908;2023-01-15T12:31:18;17.60;49.40
9446;DHT22;4761;49.490;10.908;2023-01-15T12:36:51;17.60;49.40
9446;DHT22;4761;49.490;10.908;2023-01-15T12:39:32;17.60;50.00
9446;DHT22;4761;49.490;10.908;2023-01-15T12:42:06;17.60;49.30
9446;DHT22;4761;49.490;10.908;2023-01-15T12:44:57;17.60;49.30
9446;DHT22;4761;49.490;10.908;2023-01-15T12:47:42;17.60;49.30
9446;DHT22;4761;49.490;10.908;2023-01-15T12:53:10;17.60;49.20
9446;DHT22;4761;49.490;10.908;2023-01-15T12:55:41;17.60;49.20
9446;DHT22;4761;49.490;10.908;2023-01-15T13:01:04;17.50;49.10
9446;DHT22;4761;49.490;10.908;2023-01-15T13:04:19;17.60;49.20
9446;DHT22;4761;49.490;10.908;2023-01-15T13:09:44;17.60;49.10
9446;DHT22;4761;49.490;10.908;2023-01-15T13:12:15;17.60;49.10
9446;DHT22;4761;49.490;10.908;2023-01-15T13:14:42;17.50;49.10
9446;DHT22;4761;49.490;10.908;2023-01-15T13:20:04;17.50;49.20
9446;DHT22;4761;49.490;10.908;2023-01-15T13:22:49;17.50;49.30
9446;DHT22;4761;49.490;10.908;2023-01-15T13:31:12;17.40;49.30
9446;DHT22;4761;49.490;10.908;2023-01-15T13:33:49;17.50;49.40
9446;DHT22;4761;49.490;10.908;2023-01-15T13:38:53;17.40;49.40
9446;DHT22;4761;49.490;10.908;2023-01-15T13:41:22;17.40;49.40
9446;DHT22;4761;49.490;10.908;2023-01-15T13:44:20;17.40;49.30
9446;DHT22;4761;49.490;10.908;2023-01-15T13:46:48;17.50;49.30
9446;DHT22;4761;49.490;10.908;2023-01-15T13:49:28;17.50;49.20
9446;DHT22;4761;49.490;10.908;2023-01-15T13:51:56;17.50;49.20
9446;DHT22;4761;49.490;10.908;2023-01-15T13:54:28;17.50;49.10
9446;DHT22;4761;49.490;10.908;2023-01-15T13:57:06;17.50;49.10
9446;DHT22;4761;49.490;10.908;2023-01-15T13:59:43;17.50;49.10
9446;DHT22;4761;49.490;10.908;2023-01-15T14:04:49;17.60;48.90
9446;DHT22;4761;49.490;10.908;2023-01-15T14:07:18;17.60;48.90
9446;DHT22;4761;49.490;10.908;2023-01-15T14:09:44;17.60;48.80
9446;DHT22;4761;49.490;10.908;2023-01-15T14:17:54;17.60;48.80
9446;DHT22;4761;49.490;10.908;2023-01-15T14:26:16;17.60;48.80
9446;DHT22;4761;49.490;10.908;2023-01-15T14:31:44;17.60;48.80
9446;DHT22;4761;49.490;10.908;2023-01-15T14:34:27;17.60;48.80
9446;DHT22;4761;49.490;10.908;2023-01-15T14:37:16;17.60;48.80
9446;DHT22;4761;49.490;10.908;2023-01-15T14:39:51;17.60;48.80
9446;DHT22;4761;49.490;10.908;2023-01-15T14:47:50;17.50;48.60
9446;DHT22;4761;49.490;10.908;2023-01-15T14:53:13;17.60;48.60
9446;DHT22;4761;49.490;10.908;2023-01-15T14:56:06;17.60;48.50
9446;DHT22;4761;49.490;10.908;2023-01-15T15:01:34;17.50;48.30
9446;DHT22;4761;49.490;10.908;2023-01-15T15:04:13;17.60;48.40
9446;DHT22;4761;49.490;10.908;2023-01-15T15:06:54;17.50;48.30
9446;DHT22;4761;49.490;10.908;2023-01-15T15:15:22;17.60;48.20
9446;DHT22;4761;49.490;10.908;2023-01-15T15:20:53;17.50;48.10
9446;DHT22;4761;49.490;10.908;2023-01-15T15:23:38;17.50;48.20
9446;DHT22;4761;49.490;10.908;2023-01-15T15:26:16;17.50;48.20
9446;DHT22;4761;49.490;10.908;2023-01-15T15:28:42;17.50;48.10
9446;DHT22;4761;49.490;10.908;2023-01-15T15:31:08;17.50;48.00
9446;DHT22;4761;49.490;10.908;2023-01-15T15:33:39;17.50;48.00
9446;DHT22;4761;49.490;10.908;2023-01-15T15:36:06;17.50;47.80
9446;DHT22;4761;49.490;10.908;2023-01-15T15:38:33;17.50;48.40
9446;DHT22;4761;49.490;10.908;2023-01-15T15:41:05;17.50;47.70
9446;DHT22;4761;49.490;10.908;2023-01-15T15:43:52;17.50;47.70
9446;DHT22;4761;49.490;10.908;2023-01-15T15:46:48;17.50;47.80
9446;DHT22;4761;49.490;10.908;2023-01-15T15:49:40;17.50;47.80
9446;DHT22;4761;49.490;10.908;2023-01-15T15:52:20;17.50;47.80
9446;DHT22;4761;49.490;10.908;2023-01-15T15:54:59;17.50;47.70
9446;DHT22;4761;49.490;10.908;2023-01-15T15:57:27;17.40;47.60
9446;DHT22;4761;49.490;10.908;2023-01-15T15:59:54;17.40;48.30
9446;DHT22;4761;49.490;10.908;2023-01-15T16:02:38;17.50;47.70
9446;DHT22;4761;49.490;10.908;2023-01-15T16:07:43;17.50;47.70
9446;DHT22;4761;49.490;10.908;2023-01-15T16:10:28;17.40;47.60
9446;DHT22;4761;49.490;10.908;2023-01-15T16:12:57;17.50;47.70
9446;DHT22;4761;49.490;10.908;2023-01-15T16:15:29;17.50;47.60
9446;DHT22;4761;49.490;10.908;2023-01-15T16:17:56;17.40;47.50
9446;DHT22;4761;49.490;10.908;2023-01-15T16:20:23;17.40;47.50
9446;DHT22;4761;49.490;10.908;2023-01-15T16:23:01;17.40;48.10
9446;DHT22;4761;49.490;10.908;2023-01-15T16:25:39;17.40;47.50
9446;DHT22;4761;49.490;10.908;2023-01-15T16:28:06;17.40;47.50
9446;DHT22;4761;49.490;10.908;2023-01-15T16:30:45;17.40;47.50
9446;DHT22;4761;49.490;10.908;2023-01-15T16:33:18;17.40;47.50
9446;DHT22;4761;49.490;10.908;2023-01-15T16:35:44;17.40;47.50
9446;DHT22;4761;49.490;10.908;2023-01-15T16:38:16;17.40;47.40
9446;DHT22;4761;49.490;10.908;2023-01-15T16:40:45;17.40;47.40
9446;DHT22;4761;49.490;10.908;2023-01-15T16:43:15;17.40;47.50
9446;DHT22;4761;49.490;10.908;2023-01-15T16:45:59;17.40;47.40
9446;DHT22;4761;49.490;10.908;2023-01-15T16:48:33;17.40;47.50
9446;DHT22;4761;49.490;10.908;2023-01-15T16:53:49;17.40;47.30
9446;DHT22;4761;49.490;10.908;2023-01-15T16:59:04;17.40;47.40
9446;DHT22;4761;49.490;10.908;2023-01-15T17:04:26;17.40;47.50
9446;DHT22;4761;49.490;10.908;2023-01-15T17:07:02;17.40;47.50
9446;DHT22;4761;49.490;10.908;2023-01-15T17:09:30;17.40;47.60
9446;DHT22;4761;49.490;10.908;2023-01-15T17:11:56;17.40;47.50
9446;DHT22;4761;49.490;10.908;2023-01-15T17:14:25;17.40;47.50
9446;DHT22;4761;49.490;10.908;2023-01-15T17:17:22;17.40;47.50
9446;DHT22;4761;49.490;10.908;2023-01-15T17:19:49;17.40;47.40
9446;DHT22;4761;49.490;10.908;2023-01-15T17:22:29;17.40;47.40
9446;DHT22;4761;49.490;10.908;2023-01-15T17:24:58;17.40;47.50
9446;DHT22;4761;49.490;10.908;2023-01-15T17:27:25;17.30;47.40
9446;DHT22;4761;49.490;10.908;2023-01-15T17:29:51;17.30;47.30
9446;DHT22;4761;49.490;10.908;2023-01-15T17:32:24;17.30;47.40
9446;DHT22;4761;49.490;10.908;2023-01-15T17:34:52;17.30;47.40
9446;DHT22;4761;49.490;10.908;2023-01-15T17:37:18;17.30;47.50
9446;DHT22;4761;49.490;10.908;2023-01-15T17:39:43;17.30;47.40
9446;DHT22;4761;49.490;10.908;2023-01-15T17:42:16;17.30;47.40
9446;DHT22;4761;49.490;10.908;2023-01-15T17:44:43;17.30;47.40
9446;DHT22;4761;49.490;10.908;2023-01-15T17:47:09;17.30;47.50
9446;DHT22;4761;49.490;10.908;2023-01-15T17:49:35;17.30;47.40
9446;DHT22;4761;49.490;10.908;2023-01-15T17:52:02;17.30;47.30
9446;DHT22;4761;49.490;10.908;2023-01-15T17:54:28;17.40;47.40
9446;DHT22;4761;49.490;10.908;2023-01-15T17:57:12;17.40;47.20
9446;DHT22;4761;49.490;10.908;2023-01-15T17:59:56;17.40;47.20
9446;DHT22;4761;49.490;10.908;2023-01-15T18:02:41;17.40;47.10
9446;DHT22;4761;49.490;10.908;2023-01-15T18:05:27;17.50;47.10
9446;DHT22;4761;49.490;10.908;2023-01-15T18:07:58;17.50;47.10
9446;DHT22;4761;49.490;10.908;2023-01-15T18:10:24;17.50;47.00
9446;DHT22;4761;49.490;10.908;2023-01-15T18:12:50;17.50;46.90
9446;DHT22;4761;49.490;10.908;2023-01-15T18:15:16;17.50;46.80
9446;DHT22;4761;49.490;10.908;2023-01-15T18:17:42;17.50;46.80
9446;DHT22;4761;49.490;10.908;2023-01-15T18:20:08;17.50;46.80
9446;DHT22;4761;49.490;10.908;2023-01-15T18:22:34;17.50;46.90
9446;DHT22;4761;49.490;10.908;2023-01-15T18:25:00;17.50;46.90
9446;DHT22;4761;49.490;10.908;2023-01-15T18:27:25;17.50;46.90
9446;DHT22;4761;49.490;10.908;2023-01-15T18:29:55;17.40;46.90